createdAt,value
2023-01-01T00:00:22.108Z,-0.40
2023-01-01T00:02:49.748Z,-0.40
2023-01-01T00:05:17.430Z,-0.40
2023-01-01T00:07:45.081Z,-0.20
2023-01-01T00:10:30.938Z,-0.40
2023-01-01T00:12:59.709Z,-0.40
2023-01-01T00:15:28.135Z,-0.50
2023-01-01T00:17:56.526Z,-0.50
2023-01-01T00:20:26.609Z,-0.40
2023-01-01T00:22:56.946Z,-0.30
2023-01-01T00:25:25.341Z,-0.40
2023-01-01T00:27:53.051Z,-0.50
2023-01-01T00:30:20.809Z,-0.50
2023-01-01T00:32:55.120Z,-0.40
2023-01-01T00:35:27.220Z,-0.50
2023-01-01T00:37:55.818Z,-0.50
2023-01-01T00:40:23.716Z,-0.50
2023-01-01T00:42:51.294Z,-0.60
2023-01-01T00:45:21.972Z,-0.70
2023-01-01T00:47:54.421Z,-0.80
2023-01-01T00:50:22.827Z,-0.80
2023-01-01T00:52:50.616Z,-0.80
2023-01-01T00:55:18.273Z,-0.90
2023-01-01T00:57:45.829Z,-0.80
2023-01-01T01:00:15.138Z,-0.80
2023-01-01T01:02:43.165Z,-0.70
2023-01-01T01:05:11.035Z,-0.80
2023-01-01T01:07:39.906Z,-0.90
2023-01-01T01:10:09.697Z,-0.90
2023-01-01T01:12:37.260Z,-0.80
2023-01-01T01:15:07.036Z,-0.80
2023-01-01T01:17:34.812Z,-0.80
2023-01-01T01:20:04.944Z,-0.70
2023-01-01T01:22:34.658Z,-0.80
2023-01-01T01:25:02.664Z,-0.80
2023-01-01T01:27:30.728Z,-0.70
2023-01-01T01:29:58.528Z,-0.80
2023-01-01T01:32:26.161Z,-0.90
2023-01-01T01:34:53.824Z,-0.90
2023-01-01T01:37:21.446Z,-0.90
2023-01-01T01:39:53.611Z,-1.10
2023-01-01T01:42:22.050Z,-1.10
2023-01-01T01:44:55.955Z,-1.00
2023-01-01T01:47:38.113Z,-1.00
2023-01-01T01:50:14.631Z,-1.00
2023-01-01T01:52:57.864Z,-0.90
2023-01-01T01:55:28.285Z,-0.90
2023-01-01T01:57:56.132Z,-0.90
2023-01-01T02:00:24.034Z,-0.80
2023-01-01T02:02:55.001Z,-0.80
2023-01-01T02:05:24.004Z,-0.80
2023-01-01T02:07:53.879Z,-0.80
2023-01-01T02:10:21.865Z,-0.80
2023-01-01T02:12:49.505Z,-0.80
2023-01-01T02:15:17.479Z,-0.80
2023-01-01T02:18:16.764Z,-0.80
2023-01-01T02:20:59.567Z,-0.80
2023-01-01T02:23:56.405Z,-0.90
2023-01-01T02:26:40.670Z,-0.90
2023-01-01T02:29:18.066Z,-0.80
2023-01-01T02:31:52.501Z,-0.80
2023-01-01T02:34:24.705Z,-0.80
2023-01-01T02:36:55.843Z,-0.80
2023-01-01T02:39:27.128Z,-0.80
2023-01-01T02:41:57.871Z,-0.80
2023-01-01T02:44:28.280Z,-0.80
2023-01-01T02:46:55.883Z,-0.80
2023-01-01T02:49:25.707Z,-0.80
2023-01-01T02:51:59.185Z,-0.80
2023-01-01T02:54:42.128Z,-0.80
2023-01-01T02:57:46.130Z,-0.80
2023-01-01T03:00:31.629Z,-0.80
2023-01-01T03:03:29.062Z,-0.70
2023-01-01T03:06:26.939Z,-0.80
2023-01-01T03:09:12.707Z,-0.70
2023-01-01T03:11:51.054Z,-0.80
2023-01-01T03:14:27.632Z,-0.80
2023-01-01T03:17:05.405Z,-0.80
2023-01-01T03:19:38.887Z,-0.80
2023-01-01T03:22:10.806Z,-0.70
2023-01-01T03:24:44.644Z,-0.70
2023-01-01T03:27:36.114Z,-0.70
2023-01-01T03:30:10.996Z,-0.70
2023-01-01T03:33:01.739Z,-0.70
2023-01-01T03:36:14.060Z,-0.70
2023-01-01T03:39:12.452Z,-0.80
2023-01-01T03:41:46.959Z,-0.70
2023-01-01T03:44:48.894Z,-0.70
2023-01-01T03:47:17.189Z,-0.70
2023-01-01T03:49:45.567Z,-0.70
2023-01-01T03:52:23.512Z,-0.80
2023-01-01T03:55:25.768Z,-0.80
2023-01-01T03:58:10.529Z,-0.80
2023-01-01T04:00:51.574Z,-0.80
2023-01-01T04:03:24.209Z,-0.80
2023-01-01T04:05:52.105Z,-0.80
2023-01-01T04:08:20.424Z,-0.70
2023-01-01T04:10:53.285Z,-0.70
2023-01-01T04:13:20.980Z,-0.70
2023-01-01T04:15:50.409Z,-0.70
2023-01-01T04:18:18.078Z,-0.80
2023-01-01T04:20:45.753Z,-0.70
2023-01-01T04:23:13.322Z,-0.70
2023-01-01T04:25:40.921Z,-0.70
2023-01-01T04:28:08.480Z,-0.80
2023-01-01T04:33:02.630Z,-0.60
2023-01-01T04:35:30.300Z,-0.60
2023-01-01T04:37:59.274Z,-0.60
2023-01-01T04:40:26.858Z,-0.60
2023-01-01T04:42:54.720Z,-0.60
2023-01-01T04:45:22.420Z,-0.70
2023-01-01T04:47:50.056Z,-0.70
2023-01-01T04:50:17.771Z,-0.70
2023-01-01T04:52:45.460Z,-0.80
2023-01-01T04:55:13.183Z,-0.80
2023-01-01T04:57:40.816Z,-0.80
2023-01-01T05:00:09.128Z,-0.80
2023-01-01T05:02:36.823Z,-0.90
2023-01-01T05:05:04.810Z,-0.90
2023-01-01T05:07:34.000Z,-0.90
2023-01-01T05:10:01.627Z,-0.90
2023-01-01T05:12:30.310Z,-0.90
2023-01-01T05:14:58.191Z,-0.90
2023-01-01T05:17:28.755Z,-0.90
2023-01-01T05:19:56.427Z,-0.90
2023-01-01T05:22:24.176Z,-1.00
2023-01-01T05:24:51.872Z,-1.00
2023-01-01T05:27:19.521Z,-1.00
2023-01-01T05:29:47.127Z,-1.00
2023-01-01T05:34:41.493Z,-1.00
2023-01-01T05:37:09.123Z,-1.00
2023-01-01T05:39:37.454Z,-0.90
2023-01-01T05:42:05.123Z,-0.90
2023-01-01T05:44:32.694Z,-0.90
2023-01-01T05:47:04.704Z,-0.90
2023-01-01T05:49:32.315Z,-0.90
2023-01-01T05:52:00.025Z,-0.90
2023-01-01T05:54:27.741Z,-0.90
2023-01-01T05:56:55.347Z,-0.90
2023-01-01T05:59:22.958Z,-1.00
2023-01-01T06:01:50.612Z,-1.00
2023-01-01T06:04:18.695Z,-1.00
2023-01-01T06:06:46.311Z,-1.00
2023-01-01T06:09:14.055Z,-1.00
2023-01-01T06:11:43.500Z,-1.00
2023-01-01T06:14:11.235Z,-1.00
2023-01-01T06:16:39.083Z,-1.00
2023-01-01T06:19:06.760Z,-1.00
2023-01-01T06:21:34.739Z,-1.00
2023-01-01T06:24:02.506Z,-1.00
2023-01-01T06:26:32.103Z,-0.90
2023-01-01T06:29:02.790Z,-0.90
2023-01-01T06:31:36.803Z,-0.80
2023-01-01T06:34:08.564Z,-0.90
2023-01-01T06:36:36.352Z,-0.90
2023-01-01T06:39:04.403Z,-0.90
2023-01-01T06:41:32.244Z,-1.00
2023-01-01T06:44:02.047Z,-1.00
2023-01-01T06:46:32.483Z,-1.00
2023-01-01T06:49:06.105Z,-1.00
2023-01-01T06:51:38.387Z,-1.00
2023-01-01T06:54:07.420Z,-1.00
2023-01-01T06:56:36.151Z,-0.90
2023-01-01T06:59:04.965Z,-1.00
2023-01-01T07:01:35.855Z,-1.00
2023-01-01T07:04:06.173Z,-1.00
2023-01-01T07:06:34.828Z,-1.10
2023-01-01T07:09:02.493Z,-1.10
2023-01-01T07:11:30.538Z,-1.10
2023-01-01T07:13:58.469Z,-1.10
2023-01-01T07:16:26.347Z,-1.10
2023-01-01T07:18:54.165Z,-1.00
2023-01-01T07:21:56.508Z,-1.00
2023-01-01T07:24:24.106Z,-1.00
2023-01-01T07:26:51.677Z,-1.00
2023-01-01T07:29:19.365Z,-1.00
2023-01-01T07:31:47.054Z,-1.00
2023-01-01T07:34:17.170Z,-1.00
2023-01-01T07:36:45.237Z,-1.00
2023-01-01T07:39:13.161Z,-0.90
2023-01-01T07:41:40.855Z,-1.00
2023-01-01T07:44:08.506Z,-1.00
2023-01-01T07:46:36.889Z,-1.00
2023-01-01T07:49:05.712Z,-1.00
2023-01-01T07:51:33.516Z,-1.00
2023-01-01T07:54:06.746Z,-1.00
2023-01-01T07:56:36.130Z,-1.00
2023-01-01T07:59:04.303Z,-1.00
2023-01-01T08:01:31.967Z,-0.90
2023-01-01T08:03:59.597Z,-0.90
2023-01-01T08:06:27.257Z,-1.00
2023-01-01T08:08:54.853Z,-1.00
2023-01-01T08:11:22.415Z,-1.00
2023-01-01T08:13:50.812Z,-1.00
2023-01-01T08:16:18.495Z,-1.00
2023-01-01T08:18:47.157Z,-1.00
2023-01-01T08:21:14.806Z,-1.00
2023-01-01T08:23:42.390Z,-1.00
2023-01-01T08:26:17.604Z,-1.00
2023-01-01T08:28:45.705Z,-1.00
2023-01-01T08:31:13.380Z,-1.00
2023-01-01T08:33:40.963Z,-1.00
2023-01-01T08:36:11.888Z,-0.90
2023-01-01T08:38:39.532Z,-1.00
2023-01-01T08:41:07.266Z,-1.00
2023-01-01T08:43:34.958Z,-1.00
2023-01-01T08:46:02.918Z,-0.90
2023-01-01T08:48:31.166Z,-0.90
2023-01-01T08:51:00.928Z,-0.80
2023-01-01T08:53:32.394Z,-0.80
2023-01-01T08:56:06.468Z,-0.70
2023-01-01T08:58:37.113Z,-0.60
2023-01-01T09:01:05.678Z,-0.60
2023-01-01T09:03:34.313Z,-0.60
2023-01-01T09:06:02.198Z,-0.50
2023-01-01T09:08:29.901Z,-0.40
2023-01-01T09:11:02.943Z,-0.30
2023-01-01T09:13:31.958Z,-0.20
2023-01-01T09:15:59.824Z,-0.20
2023-01-01T09:18:27.769Z,-0.20
2023-01-01T09:20:55.302Z,-0.10
2023-01-01T09:23:23.041Z,-0.10
2023-01-01T09:25:50.758Z,0.00
2023-01-01T09:28:25.587Z,0.00
2023-01-01T09:30:53.967Z,0.10
2023-01-01T09:33:21.605Z,0.20
2023-01-01T09:35:49.287Z,0.30
2023-01-01T09:38:16.977Z,0.40
2023-01-01T09:41:08.815Z,0.50
2023-01-01T09:43:59.650Z,0.60
2023-01-01T09:46:31.694Z,0.70
2023-01-01T09:49:18.862Z,0.70
2023-01-01T09:51:57.827Z,0.80
2023-01-01T09:54:33.514Z,0.90
2023-01-01T09:57:06.618Z,0.90
2023-01-01T09:59:34.599Z,0.90
2023-01-01T10:02:11.305Z,0.90
2023-01-01T10:04:51.026Z,0.90
2023-01-01T10:07:38.275Z,1.00
2023-01-01T10:10:19.323Z,1.00
2023-01-01T10:13:14.024Z,1.00
2023-01-01T10:15:52.779Z,1.10
2023-01-01T10:18:24.840Z,1.20
2023-01-01T10:21:00.135Z,1.40
2023-01-01T10:23:47.416Z,1.70
2023-01-01T10:26:21.572Z,2.60
2023-01-01T10:28:52.350Z,4.00
2023-01-01T10:31:34.700Z,5.30
2023-01-01T10:34:24.513Z,5.80
2023-01-01T10:36:58.077Z,6.40
2023-01-01T10:39:26.718Z,6.60
2023-01-01T10:41:54.352Z,7.10
2023-01-01T10:44:28.753Z,7.10
2023-01-01T10:47:05.155Z,7.40
2023-01-01T10:49:32.839Z,7.50
2023-01-01T10:52:00.527Z,7.10
2023-01-01T10:54:40.897Z,7.60
2023-01-01T10:57:28.514Z,7.80
2023-01-01T11:00:10.019Z,8.00
2023-01-01T11:02:37.901Z,8.40
2023-01-01T11:05:20.704Z,8.60
2023-01-01T11:07:50.236Z,8.80
2023-01-01T11:10:22.017Z,8.80
2023-01-01T11:13:07.041Z,9.00
2023-01-01T11:15:41.288Z,9.60
2023-01-01T11:18:19.767Z,9.20
2023-01-01T11:20:58.718Z,9.30
2023-01-01T11:23:32.279Z,9.80
2023-01-01T11:26:18.106Z,10.50
2023-01-01T11:29:05.421Z,10.30
2023-01-01T11:31:40.077Z,10.40
2023-01-01T11:34:27.575Z,10.60
2023-01-01T11:37:26.571Z,10.60
2023-01-01T11:39:57.861Z,10.70
2023-01-01T11:42:27.332Z,11.30
2023-01-01T11:44:58.663Z,12.10
2023-01-01T11:47:34.025Z,11.20
2023-01-01T11:50:19.055Z,11.50
2023-01-01T11:52:51.869Z,11.60
2023-01-01T11:55:26.744Z,11.90
2023-01-01T11:58:04.633Z,11.90
2023-01-01T12:00:36.068Z,11.60
2023-01-01T12:03:17.702Z,11.30
2023-01-01T12:05:53.070Z,11.20
2023-01-01T12:08:37.777Z,11.60
2023-01-01T12:11:40.447Z,12.10
2023-01-01T12:14:17.551Z,12.50
2023-01-01T12:17:05.611Z,12.50
2023-01-01T12:19:58.313Z,12.20
2023-01-01T12:22:29.450Z,12.60
2023-01-01T12:24:58.083Z,11.40
2023-01-01T12:27:32.300Z,11.50
2023-01-01T12:30:12.358Z,11.90
2023-01-01T12:33:05.628Z,12.20
2023-01-01T12:36:00.058Z,12.50
2023-01-01T12:38:51.495Z,12.90
2023-01-01T12:41:46.291Z,11.80
2023-01-01T12:44:37.115Z,11.50
2023-01-01T12:47:18.191Z,11.20
2023-01-01T12:50:01.185Z,11.10
2023-01-01T12:52:48.140Z,10.80
2023-01-01T12:56:00.593Z,11.50
2023-01-01T12:58:33.294Z,11.10
2023-01-01T13:01:28.465Z,10.70
2023-01-01T13:04:05.763Z,9.70
2023-01-01T13:07:03.791Z,9.50
2023-01-01T13:09:39.765Z,9.40
2023-01-01T13:12:19.087Z,8.40
2023-01-01T13:14:49.922Z,7.10
2023-01-01T13:17:19.299Z,6.20
2023-01-01T13:19:48.204Z,5.70
2023-01-01T13:22:42.037Z,5.30
2023-01-01T13:25:10.936Z,5.00
2023-01-01T13:27:58.022Z,4.60
2023-01-01T13:30:43.817Z,4.20
2023-01-01T13:33:54.176Z,4.10
2023-01-01T13:36:30.994Z,4.00
2023-01-01T13:39:00.282Z,3.90
2023-01-01T13:41:29.906Z,3.70
2023-01-01T13:44:00.670Z,3.70
2023-01-01T13:46:44.071Z,3.70
2023-01-01T13:49:46.342Z,3.60
2023-01-01T13:52:35.784Z,3.30
2023-01-01T13:55:27.592Z,3.30
2023-01-01T13:58:10.108Z,3.30
2023-01-01T14:00:59.661Z,3.20
2023-01-01T14:03:29.129Z,3.20
2023-01-01T14:06:03.469Z,3.10
2023-01-01T14:08:32.898Z,3.00
2023-01-01T14:11:02.300Z,3.00
2023-01-01T14:13:38.919Z,3.00
2023-01-01T14:16:13.699Z,2.90
2023-01-01T14:18:51.736Z,2.80
2023-01-01T14:21:22.436Z,2.70
2023-01-01T14:23:54.481Z,2.60
2023-01-01T14:26:25.654Z,2.40
2023-01-01T14:28:58.630Z,2.30
2023-01-01T14:31:32.335Z,2.20
2023-01-01T14:34:01.774Z,2.20
2023-01-01T14:36:31.356Z,2.20
2023-01-01T14:39:03.100Z,2.20
2023-01-01T14:41:41.643Z,2.10
2023-01-01T14:44:22.792Z,2.00
2023-01-01T14:46:53.474Z,2.00
2023-01-01T14:49:29.604Z,2.00
2023-01-01T14:52:05.483Z,1.90
2023-01-01T14:54:36.056Z,1.80
2023-01-01T14:57:09.149Z,1.80
2023-01-01T14:59:40.964Z,1.80
2023-01-01T15:02:24.310Z,1.70
2023-01-01T15:04:52.574Z,1.60
2023-01-01T15:07:20.130Z,1.60
2023-01-01T15:09:47.992Z,1.60
2023-01-01T15:12:18.114Z,1.60
2023-01-01T15:14:45.892Z,1.60
2023-01-01T15:17:16.018Z,1.80
2023-01-01T15:19:46.983Z,1.70
2023-01-01T15:22:35.402Z,1.60
2023-01-01T15:25:03.801Z,1.50
2023-01-01T15:27:36.943Z,1.70
2023-01-01T15:30:13.241Z,1.50
2023-01-01T15:32:41.660Z,1.30
2023-01-01T15:35:31.101Z,1.20
2023-01-01T15:38:10.655Z,1.20
2023-01-01T15:40:38.387Z,1.10
2023-01-01T15:43:14.156Z,1.00
2023-01-01T15:45:51.628Z,1.10
2023-01-01T15:48:25.462Z,1.00
2023-01-01T15:50:52.971Z,0.80
2023-01-01T15:53:27.340Z,0.80
2023-01-01T15:55:59.684Z,0.70
2023-01-01T15:58:37.075Z,0.70
2023-01-01T16:01:08.950Z,0.60
2023-01-01T16:03:38.504Z,0.60
2023-01-01T16:06:06.617Z,0.60
2023-01-01T16:08:34.869Z,0.70
2023-01-01T16:11:02.491Z,0.60
2023-01-01T16:13:40.279Z,0.50
2023-01-01T16:16:24.919Z,0.50
2023-01-01T16:18:52.830Z,0.50
2023-01-01T16:21:21.803Z,0.40
2023-01-01T16:23:49.482Z,0.40
2023-01-01T16:26:17.085Z,0.40
2023-01-01T16:28:44.706Z,0.40
2023-01-01T16:31:23.141Z,0.40
2023-01-01T16:33:56.345Z,0.30
2023-01-01T16:36:24.559Z,0.40
2023-01-01T16:38:52.146Z,0.20
2023-01-01T16:41:19.773Z,0.10
2023-01-01T16:43:48.267Z,0.00
2023-01-01T16:46:16.058Z,0.00
2023-01-01T16:48:44.632Z,0.10
2023-01-01T16:51:24.554Z,0.10
2023-01-01T16:53:55.750Z,0.10
2023-01-01T16:56:23.781Z,0.10
2023-01-01T16:58:55.449Z,0.10
2023-01-01T17:01:29.820Z,0.10
2023-01-01T17:03:57.479Z,0.10
2023-01-01T17:06:25.123Z,0.10
2023-01-01T17:08:52.884Z,0.10
2023-01-01T17:11:21.204Z,0.10
2023-01-01T17:13:48.900Z,0.30
2023-01-01T17:16:23.590Z,0.30
2023-01-01T17:19:14.396Z,0.10
2023-01-01T17:21:42.965Z,-0.10
2023-01-01T17:24:10.765Z,-0.10
2023-01-01T17:26:38.550Z,0.00
2023-01-01T17:29:07.698Z,-0.10
2023-01-01T17:31:36.028Z,0.00
2023-01-01T17:34:03.970Z,-0.10
2023-01-01T17:36:31.916Z,-0.10
2023-01-01T17:38:59.574Z,-0.20
2023-01-01T17:41:30.159Z,-0.20
2023-01-01T17:43:58.034Z,-0.10
2023-01-01T17:46:31.107Z,-0.10
2023-01-01T17:49:02.655Z,-0.10
2023-01-01T17:51:30.556Z,-0.10
2023-01-01T17:53:58.281Z,-0.20
2023-01-01T17:56:25.928Z,-0.10
2023-01-01T17:58:55.546Z,-0.30
2023-01-01T18:01:23.440Z,-0.20
2023-01-01T18:03:53.465Z,-0.30
2023-01-01T18:06:22.194Z,-0.30
2023-01-01T18:08:53.917Z,-0.40
2023-01-01T18:11:21.618Z,-0.40
2023-01-01T18:13:49.331Z,-0.50
2023-01-01T18:16:17.273Z,-0.50
2023-01-01T18:18:44.983Z,-0.50
2023-01-01T18:21:19.533Z,-0.50
2023-01-01T18:23:48.277Z,-0.40
2023-01-01T18:26:16.288Z,-0.50
2023-01-01T18:28:44.116Z,-0.50
2023-01-01T18:31:14.784Z,-0.50
2023-01-01T18:33:43.178Z,-0.50
2023-01-01T18:36:13.081Z,-0.60
2023-01-01T18:38:45.147Z,-0.60
2023-01-01T18:41:29.117Z,-0.60
2023-01-01T18:44:00.047Z,-0.50
2023-01-01T18:46:37.457Z,-0.60
2023-01-01T18:49:08.618Z,-0.60
2023-01-01T18:51:36.169Z,-0.50
2023-01-01T18:54:16.374Z,-0.60
2023-01-01T18:56:45.242Z,-0.60
2023-01-01T18:59:24.109Z,-0.80
2023-01-01T19:01:51.920Z,-0.90
2023-01-01T19:04:19.759Z,-0.80
2023-01-01T19:06:47.418Z,-0.60
2023-01-01T19:09:20.151Z,-0.70
2023-01-01T19:11:52.940Z,-0.70
2023-01-01T19:14:25.760Z,-0.60
2023-01-01T19:16:57.929Z,-0.70
2023-01-01T19:19:26.712Z,-0.70
2023-01-01T19:22:06.660Z,-0.70
2023-01-01T19:24:36.122Z,-0.80
2023-01-01T19:27:16.438Z,-0.70
2023-01-01T19:29:45.867Z,-0.80
2023-01-01T19:32:13.651Z,-0.80
2023-01-01T19:34:41.431Z,-0.70
2023-01-01T19:37:13.348Z,-0.70
2023-01-01T19:39:41.000Z,-0.60
2023-01-01T19:42:08.762Z,-0.70
2023-01-01T19:44:37.081Z,-0.70
2023-01-01T19:47:05.163Z,-0.80
2023-01-01T19:49:32.957Z,-0.80
2023-01-01T19:52:00.536Z,-0.90
2023-01-01T19:54:28.107Z,-0.90
2023-01-01T19:56:55.758Z,-0.90
2023-01-01T19:59:29.263Z,-0.90
2023-01-01T20:02:34.715Z,-0.80
2023-01-01T20:04:48.079Z,-1.00
2023-01-01T20:07:15.998Z,-1.10
2023-01-01T20:09:43.782Z,-1.10
2023-01-01T20:12:11.355Z,-1.00
2023-01-01T20:14:38.964Z,-0.90
2023-01-01T20:17:06.554Z,-0.80
2023-01-01T20:19:35.519Z,-0.80
2023-01-01T20:22:12.257Z,-0.80
2023-01-01T20:24:46.278Z,-0.90
2023-01-01T20:27:17.737Z,-1.00
2023-01-01T20:29:45.489Z,-1.10
2023-01-01T20:32:14.018Z,-1.00
2023-01-01T20:34:44.983Z,-1.00
2023-01-01T20:37:31.486Z,-1.10
2023-01-01T20:40:11.141Z,-1.10
2023-01-01T20:42:43.613Z,-1.20
2023-01-01T20:45:11.874Z,-1.30
2023-01-01T20:47:39.633Z,-1.20
2023-01-01T20:50:07.469Z,-1.20
2023-01-01T20:52:35.141Z,-1.30
2023-01-01T20:55:03.048Z,-1.20
2023-01-01T20:57:30.851Z,-1.30
2023-01-01T20:59:58.483Z,-1.30
2023-01-01T21:02:26.258Z,-1.20
2023-01-01T21:04:54.055Z,-1.20
2023-01-01T21:07:21.753Z,-1.30
2023-01-01T21:09:49.457Z,-1.20
2023-01-01T21:12:19.861Z,-1.20
2023-01-01T21:14:48.289Z,-1.30
2023-01-01T21:17:21.328Z,-1.20
2023-01-01T21:19:51.763Z,-1.20
2023-01-01T21:22:19.590Z,-1.10
2023-01-01T21:24:53.364Z,-1.10
2023-01-01T21:27:32.392Z,-1.20
2023-01-01T21:30:02.987Z,-1.10
2023-01-01T21:32:43.044Z,-1.10
2023-01-01T21:35:37.809Z,-1.10
2023-01-01T21:38:17.206Z,-1.10
2023-01-01T21:40:52.178Z,-1.10
2023-01-01T21:43:26.297Z,-1.10
2023-01-01T21:45:57.022Z,-1.00
2023-01-01T21:48:37.899Z,-1.10
2023-01-01T21:51:21.454Z,-1.10
2023-01-01T21:53:49.386Z,-1.10
2023-01-01T21:56:31.975Z,-1.00
2023-01-01T21:59:27.962Z,-1.00
2023-01-01T22:02:08.355Z,-1.00
2023-01-01T22:04:39.720Z,-1.00
2023-01-01T22:07:56.365Z,-0.90
2023-01-01T22:10:34.790Z,-0.90
2023-01-01T22:13:02.644Z,-1.00
2023-01-01T22:15:41.888Z,-1.10
2023-01-01T22:18:12.468Z,-1.20
2023-01-01T22:20:43.105Z,-1.20
2023-01-01T22:23:22.477Z,-1.10
2023-01-01T22:25:51.053Z,-1.10
2023-01-01T22:28:36.588Z,-1.20
2023-01-01T22:31:04.308Z,-1.30
2023-01-01T22:33:38.747Z,-1.10
2023-01-01T22:36:21.130Z,-1.20
2023-01-01T22:38:48.979Z,-1.20
2023-01-01T22:41:16.573Z,-1.10
2023-01-01T22:43:46.772Z,-1.10
2023-01-01T22:46:27.388Z,-1.10
2023-01-01T22:49:00.012Z,-1.10
2023-01-01T22:51:37.254Z,-1.10
2023-01-01T22:54:04.895Z,-1.20
2023-01-01T22:56:32.536Z,-1.30
2023-01-01T22:59:00.096Z,-1.30
2023-01-01T23:01:28.222Z,-1.50
2023-01-01T23:03:55.981Z,-1.40
2023-01-01T23:06:23.814Z,-1.30
2023-01-01T23:08:52.892Z,-1.30
2023-01-01T23:11:21.123Z,-1.30
2023-01-01T23:14:09.314Z,-1.30
2023-01-01T23:16:37.323Z,-1.30
2023-01-01T23:19:05.673Z,-1.40
2023-01-01T23:21:35.060Z,-1.50
2023-01-01T23:24:06.820Z,-1.50
2023-01-01T23:26:34.451Z,-1.60
2023-01-01T23:29:03.041Z,-1.60
2023-01-01T23:31:32.216Z,-1.60
2023-01-01T23:34:00.001Z,-1.60
2023-01-01T23:36:28.391Z,-1.70
2023-01-01T23:38:56.004Z,-1.70
2023-01-01T23:41:24.097Z,-1.60
2023-01-01T23:43:51.657Z,-1.50
2023-01-01T23:46:19.919Z,-1.50
2023-01-01T23:48:48.697Z,-1.50
2023-01-01T23:51:17.278Z,-1.40
2023-01-01T23:53:45.395Z,-1.50
2023-01-01T23:56:13.167Z,-1.50
2023-01-01T23:58:40.737Z,-1.50
